createdAt,value
2023-03-19T00:02:29.426Z,10.10
2023-03-19T00:08:48.030Z,10.00
2023-03-19T00:15:09.174Z,10.10
2023-03-19T00:21:03.805Z,10.00
2023-03-19T00:26:58.328Z,9.90
2023-03-19T00:33:16.804Z,9.90
2023-03-19T00:39:35.368Z,10.00
2023-03-19T00:45:30.947Z,9.90
2023-03-19T00:51:26.028Z,9.70
2023-03-19T00:57:44.570Z,9.70
2023-03-19T01:04:03.090Z,9.70
2023-03-19T01:09:57.459Z,9.60
2023-03-19T01:15:52.512Z,9.40
2023-03-19T01:22:11.307Z,9.50
2023-03-19T01:28:29.689Z,9.50
2023-03-19T01:34:24.303Z,9.40
2023-03-19T01:40:18.829Z,9.30
2023-03-19T01:46:37.917Z,9.30
2023-03-19T01:52:56.352Z,9.30
2023-03-19T01:58:51.410Z,9.20
2023-03-19T02:04:47.038Z,9.20
2023-03-19T02:11:05.821Z,9.10
2023-03-19T02:17:24.263Z,9.20
2023-03-19T02:23:37.170Z,9.10
2023-03-19T02:29:31.876Z,9.20
2023-03-19T02:35:51.803Z,9.20
2023-03-19T02:42:11.157Z,9.00
2023-03-19T02:48:06.081Z,9.00
2023-03-19T02:54:01.029Z,9.00
2023-03-19T03:00:20.904Z,9.00
2023-03-19T03:06:39.313Z,9.00
2023-03-19T03:12:33.761Z,8.90
2023-03-19T03:18:28.374Z,8.80
2023-03-19T03:24:47.575Z,8.90
2023-03-19T03:31:06.151Z,9.00
2023-03-19T03:37:00.632Z,9.10
2023-03-19T03:42:55.207Z,9.10
2023-03-19T03:49:13.687Z,9.00
2023-03-19T03:55:32.204Z,9.10
2023-03-19T04:01:26.913Z,9.10
2023-03-19T04:07:21.499Z,9.20
2023-03-19T04:13:40.051Z,9.20
2023-03-19T04:19:58.496Z,9.30
2023-03-19T04:25:52.988Z,9.30
2023-03-19T04:31:47.702Z,9.30
2023-03-19T04:38:06.180Z,9.30
2023-03-19T04:44:24.525Z,9.40
2023-03-19T04:50:19.186Z,9.40
2023-03-19T04:56:16.267Z,9.30
2023-03-19T05:02:35.760Z,9.30
2023-03-19T05:08:54.581Z,9.40
2023-03-19T05:14:48.959Z,9.30
2023-03-19T05:20:43.412Z,9.30
2023-03-19T05:27:02.260Z,9.50
2023-03-19T05:33:20.651Z,9.50
2023-03-19T05:39:15.042Z,9.50
2023-03-19T05:45:09.836Z,9.50
2023-03-19T05:51:28.309Z,9.50
2023-03-19T05:57:46.675Z,9.40
2023-03-19T06:03:41.091Z,9.50
2023-03-19T06:09:35.601Z,9.50
2023-03-19T06:15:54.097Z,9.60
2023-03-19T06:22:12.524Z,9.70
2023-03-19T06:28:06.921Z,9.80
2023-03-19T06:34:01.655Z,9.90
2023-03-19T06:40:20.198Z,9.90
2023-03-19T06:46:38.564Z,9.80
2023-03-19T06:52:32.941Z,9.80
2023-03-19T06:58:27.409Z,9.90
2023-03-19T07:04:46.089Z,10.00
2023-03-19T07:11:05.291Z,10.10
2023-03-19T07:16:59.733Z,10.10
2023-03-19T07:22:54.227Z,10.10
2023-03-19T07:29:12.730Z,10.20
2023-03-19T07:37:22.582Z,10.30
2023-03-19T07:43:18.421Z,10.20
2023-03-19T07:49:12.972Z,10.20
2023-03-19T07:55:31.644Z,10.10
2023-03-19T08:01:51.060Z,9.80
2023-03-19T08:07:45.973Z,9.50
2023-03-19T08:13:40.457Z,9.60
2023-03-19T08:19:58.977Z,9.60
2023-03-19T08:26:17.426Z,9.60
2023-03-19T08:32:12.089Z,9.30
2023-03-19T08:38:07.128Z,9.00
2023-03-19T08:44:26.681Z,8.90
2023-03-19T08:50:45.090Z,9.10
2023-03-19T08:56:39.975Z,9.00
2023-03-19T09:02:34.491Z,8.80
2023-03-19T09:08:53.027Z,8.80
2023-03-19T09:15:11.772Z,8.90
2023-03-19T09:21:06.292Z,9.00
2023-03-19T09:27:02.042Z,9.00
2023-03-19T09:33:21.442Z,9.30
2023-03-19T09:39:39.857Z,9.40
2023-03-19T09:45:34.522Z,9.40
2023-03-19T09:51:32.913Z,9.30
2023-03-19T09:57:53.403Z,9.60
2023-03-19T10:04:32.954Z,10.00
2023-03-19T10:10:37.686Z,10.10
2023-03-19T10:16:32.263Z,10.20
2023-03-19T10:22:53.557Z,10.10
2023-03-19T10:29:14.264Z,10.20
2023-03-19T10:35:12.353Z,10.20
2023-03-19T10:41:18.922Z,10.50
2023-03-19T10:47:41.246Z,10.70
2023-03-19T10:54:00.797Z,10.10
2023-03-19T10:59:55.187Z,10.00
2023-03-19T11:05:49.690Z,9.90
2023-03-19T11:12:15.129Z,9.80
2023-03-19T11:18:37.252Z,10.00
2023-03-19T11:24:32.598Z,10.10
2023-03-19T11:30:27.456Z,10.40
2023-03-19T11:37:12.246Z,10.50
2023-03-19T11:43:50.584Z,10.50
2023-03-19T11:49:48.222Z,10.60
2023-03-19T11:56:27.581Z,10.60
2023-03-19T12:02:52.013Z,10.50
2023-03-19T12:09:17.691Z,10.80
2023-03-19T12:15:48.327Z,10.90
2023-03-19T12:21:56.172Z,11.00
2023-03-19T12:28:17.657Z,10.90
2023-03-19T12:34:36.165Z,10.30
2023-03-19T12:40:35.243Z,10.00
2023-03-19T12:46:53.632Z,9.90
2023-03-19T12:53:19.679Z,9.90
2023-03-19T12:59:41.248Z,9.70
2023-03-19T13:05:36.859Z,9.50
2023-03-19T13:11:37.232Z,9.30
2023-03-19T13:18:21.921Z,9.20
2023-03-19T13:24:41.147Z,9.30
2023-03-19T13:30:39.619Z,9.20
2023-03-19T13:36:39.426Z,9.30
2023-03-19T13:42:58.100Z,9.70
2023-03-19T13:49:19.602Z,9.80
2023-03-19T13:55:26.278Z,9.60
2023-03-19T14:01:26.544Z,9.60
2023-03-19T14:07:51.539Z,9.50
2023-03-19T14:14:13.088Z,9.70
2023-03-19T14:20:12.598Z,9.80
2023-03-19T14:26:11.473Z,10.10
2023-03-19T14:32:34.368Z,10.10
2023-03-19T14:38:57.199Z,9.90
2023-03-19T14:44:51.599Z,9.80
2023-03-19T14:51:10.558Z,9.80
2023-03-19T14:57:33.027Z,10.10
2023-03-19T15:04:21.092Z,10.20
2023-03-19T15:10:17.902Z,10.20
2023-03-19T15:16:40.172Z,10.20
2023-03-19T15:23:02.010Z,10.20
2023-03-19T15:29:30.524Z,9.70
2023-03-19T15:35:26.645Z,9.60
2023-03-19T15:41:21.302Z,9.70
2023-03-19T15:47:43.974Z,9.80
2023-03-19T15:54:02.388Z,10.00
2023-03-19T15:59:56.851Z,9.70
2023-03-19T16:05:52.729Z,9.90
2023-03-19T16:12:39.977Z,9.70
2023-03-19T16:18:58.607Z,9.50
2023-03-19T16:24:53.902Z,9.60
2023-03-19T16:30:48.530Z,9.70
2023-03-19T16:37:26.066Z,9.90
2023-03-19T16:43:44.963Z,10.10
2023-03-19T16:49:39.331Z,10.00
2023-03-19T16:55:36.943Z,9.80
2023-03-19T17:01:56.082Z,9.70
2023-03-19T17:08:14.595Z,10.00
2023-03-19T17:14:16.746Z,10.70
2023-03-19T17:20:30.429Z,10.30
2023-03-19T17:26:48.913Z,9.90
2023-03-19T17:33:07.332Z,9.50
2023-03-19T17:39:02.013Z,9.30
2023-03-19T17:44:58.982Z,9.20
2023-03-19T17:51:17.905Z,9.20
2023-03-19T17:57:36.320Z,9.20
2023-03-19T18:03:31.890Z,9.20
2023-03-19T18:09:28.544Z,9.20
2023-03-19T18:15:47.119Z,9.10
2023-03-19T18:22:15.531Z,9.00
2023-03-19T18:28:09.900Z,8.90
2023-03-19T18:34:06.521Z,8.90
2023-03-19T18:40:27.023Z,8.80
2023-03-19T18:46:45.442Z,8.80
2023-03-19T18:52:40.308Z,8.80
2023-03-19T18:58:35.032Z,8.70
2023-03-19T19:04:53.586Z,8.60
2023-03-19T19:11:11.983Z,8.60
2023-03-19T19:17:06.506Z,8.60
2023-03-19T19:23:01.225Z,8.40
2023-03-19T19:29:24.454Z,8.40
2023-03-19T19:35:42.898Z,8.30
2023-03-19T19:41:37.343Z,8.30
2023-03-19T19:47:32.555Z,8.20
2023-03-19T19:53:52.222Z,8.20
2023-03-19T20:00:29.903Z,8.20
2023-03-19T20:06:24.300Z,8.10
2023-03-19T20:12:33.029Z,8.00
2023-03-19T20:18:53.891Z,8.00
2023-03-19T20:25:12.772Z,8.00
2023-03-19T20:31:07.206Z,7.90
2023-03-19T20:37:01.723Z,7.80
2023-03-19T20:43:26.773Z,7.70
2023-03-19T20:49:46.513Z,7.60
2023-03-19T20:55:41.191Z,7.50
2023-03-19T21:01:35.709Z,7.30
2023-03-19T21:07:55.537Z,7.30
2023-03-19T21:14:14.805Z,7.30
2023-03-19T21:20:16.105Z,7.30
2023-03-19T21:26:16.967Z,7.20
2023-03-19T21:32:35.738Z,7.10
2023-03-19T21:38:54.166Z,7.00
2023-03-19T21:44:56.909Z,7.00
2023-03-19T21:50:52.024Z,7.00
2023-03-19T21:57:14.078Z,6.90
2023-03-19T22:03:32.537Z,7.00
2023-03-19T22:09:26.923Z,6.90
2023-03-19T22:15:30.567Z,6.90
2023-03-19T22:21:49.660Z,6.90
2023-03-19T22:28:18.248Z,6.90
2023-03-19T22:34:17.179Z,6.80
2023-03-19T22:40:16.255Z,6.80
2023-03-19T22:46:34.713Z,6.70
2023-03-19T22:52:53.173Z,6.70
2023-03-19T22:58:47.938Z,6.70
2023-03-19T23:04:42.576Z,6.60
2023-03-19T23:11:01.699Z,6.60
2023-03-19T23:17:20.155Z,6.60
2023-03-19T23:23:15.309Z,6.50
2023-03-19T23:29:29.461Z,6.50
2023-03-19T23:35:48.270Z,6.40
2023-03-19T23:42:06.765Z,6.40
2023-03-19T23:48:05.185Z,6.30
2023-03-19T23:53:59.680Z,6.30
